Time;durP1;ratioP1;P1;durP2;ratioP2;P2;SDS_P1;SDS_P2;PMS_P1;PMS_P2;Temp;Humidity;BMP_temperature;BMP_pressure;BME280_temperature;BME280_humidity;BME280_pressure;Samples;Min_cycle;Max_cycle;Signal;HPM_P1;HPM_P2
2023/09/12 00:04:01;;;;;;;10.02;6.50;;;;;;;21.15;66.87;100426.88;31537941;28;20049;-86
2023/09/12 00:19:03;;;;;;;11.55;6.25;;;;;;;21.04;67.38;100429.50;31529887;28;20422;-87
2023/09/12 00:34:06;;;;;;;13.25;5.65;;;;;;;21.01;67.19;100428.47;31506153;28;20517;-86
2023/09/12 00:49:08;;;;;;;10.00;5.60;;;;;;;20.89;67.23;100429.56;31490615;28;20048;-76
2023/09/12 01:04:14;;;;;;;13.93;5.90;;;;;;;20.85;67.37;100425.47;31471585;28;20041;-77
2023/09/12 01:19:34;;;;;;;12.13;5.50;;;;;;;20.81;66.98;100427.69;31483637;28;20052;-77
2023/09/12 01:34:36;;;;;;;16.10;6.20;;;;;;;20.74;67.53;100432.38;31510580;28;20057;-75
2023/09/12 01:49:52;;;;;;;14.63;8.10;;;;;;;20.52;68.96;100426.53;31481393;28;20129;-78
2023/09/12 02:05:18;;;;;;;15.50;7.93;;;;;;;20.18;71.68;100432.72;31494096;28;20461;-76
2023/09/12 02:20:21;;;;;;;12.93;7.60;;;;;;;19.94;71.61;100430.84;31482956;28;20498;-78
2023/09/12 02:35:32;;;;;;;14.13;7.95;;;;;;;19.74;74.16;100433.47;31480388;28;20045;-77
2023/09/12 02:50:34;;;;;;;17.50;8.25;;;;;;;19.58;75.22;100431.19;31480894;28;20466;-78
2023/09/12 03:05:36;;;;;;;24.05;11.65;;;;;;;19.49;76.69;100436.72;31493747;28;20045;-79
2023/09/12 03:20:39;;;;;;;22.73;11.13;;;;;;;19.43;77.96;100434.63;31475309;28;20052;-78
2023/09/12 03:35:43;;;;;;;21.10;10.23;;;;;;;19.42;79.69;100433.09;31474416;28;20087;-81
2023/09/12 03:50:45;;;;;;;14.23;8.03;;;;;;;19.62;79.32;100435.25;31492726;28;20052;-79
2023/09/12 04:05:48;;;;;;;17.17;8.30;;;;;;;19.88;79.34;100449.25;31469481;28;20402;-75
2023/09/12 04:20:50;;;;;;;14.48;9.05;;;;;;;20.18;79.02;100463.03;31469335;28;20072;-75
2023/09/12 04:35:52;;;;;;;15.57;9.30;;;;;;;20.50;78.13;100470.38;31470666;28;20054;-78
2023/09/12 04:50:55;;;;;;;18.35;8.88;;;;;;;21.15;76.18;100486.84;31505236;28;20529;-77
2023/09/12 05:05:58;;;;;;;14.95;8.25;;;;;;;21.65;74.67;100495.78;31492172;28;20051;-78
2023/09/12 05:21:00;;;;;;;19.53;8.23;;;;;;;22.43;73.82;100489.03;31483067;28;20126;-79
2023/09/12 05:36:03;;;;;;;17.83;10.63;;;;;;;23.39;74.49;100499.44;31487696;28;20048;-79
2023/09/12 05:51:05;;;;;;;83.65;14.07;;;;;;;24.44;73.04;100498.22;31487255;28;20135;-77
2023/09/12 06:06:07;;;;;;;15.05;8.20;;;;;;;25.63;66.54;100508.56;31485783;28;20438;-79
2023/09/12 06:21:09;;;;;;;26.58;8.75;;;;;;;26.91;61.98;100536.75;31486939;28;20070;-77
2023/09/12 06:36:11;;;;;;;26.33;8.07;;;;;;;27.76;58.77;100538.84;31481046;28;20505;-76
2023/09/12 06:51:14;;;;;;;12.57;6.73;;;;;;;28.68;55.43;100538.50;31474895;28;20057;-78
2023/09/12 07:06:19;;;;;;;16.73;6.88;;;;;;;29.89;51.98;100549.88;31482194;28;20417;-77
2023/09/12 07:21:21;;;;;;;16.80;6.20;;;;;;;30.77;48.38;100546.28;31481972;28;20052;-78
2023/09/12 07:36:23;;;;;;;26.83;6.30;;;;;;;31.56;44.97;100538.56;31468202;28;20554;-75
2023/09/12 07:51:25;;;;;;;8.55;4.93;;;;;;;32.65;42.55;100542.53;31467430;28;20118;-76
2023/09/12 08:06:27;;;;;;;8.32;3.85;;;;;;;33.15;39.30;100527.50;31469531;28;20460;-75
2023/09/12 08:21:29;;;;;;;9.63;3.97;;;;;;;33.21;39.27;100519.63;31480120;28;20567;-79
2023/09/12 08:36:32;;;;;;;9.23;4.18;;;;;;;29.92;43.11;100520.81;31492306;28;20057;-81
2023/09/12 08:51:34;;;;;;;6.38;3.53;;;;;;;30.09;43.12;100524.00;31483183;28;20040;-77
2023/09/12 09:06:37;;;;;;;6.07;3.00;;;;;;;33.54;38.74;100500.75;31487501;28;20071;-77
2023/09/12 09:21:42;;;;;;;11.52;7.82;;;;;;;31.17;39.19;100515.19;31483400;28;20501;-80
2023/09/12 09:36:52;;;;;;;6.18;3.05;;;;;;;31.99;38.09;100507.66;31492066;28;20067;-73
2023/09/12 09:51:56;;;;;;;8.18;4.07;;;;;;;34.30;34.37;100504.44;31477689;28;20049;-76
2023/09/12 10:06:59;;;;;;;3.85;3.00;;;;;;;33.99;35.08;100507.47;31481697;28;20076;-77
2023/09/12 10:22:15;;;;;;;8.73;3.83;;;;;;;32.24;35.58;100504.34;31482913;28;20048;-77
2023/09/12 10:37:21;;;;;;;5.65;2.63;;;;;;;31.36;36.94;100504.44;31474727;28;20060;-77
2023/09/12 10:52:28;;;;;;;12.85;4.57;;;;;;;30.80;37.28;100489.16;31473257;28;20516;-77
2023/09/12 11:07:32;;;;;;;8.18;4.30;;;;;;;31.91;37.13;100478.06;31479142;28;20501;-82
2023/09/12 11:22:35;;;;;;;4.38;2.78;;;;;;;33.84;35.27;100482.97;31477511;28;20052;-78
2023/09/12 11:37:37;;;;;;;3.83;3.17;;;;;;;34.87;33.94;100454.34;31473496;28;20117;-76
2023/09/12 11:52:39;;;;;;;8.20;5.15;;;;;;;34.36;34.04;100454.25;31472564;28;20440;-79
2023/09/12 12:07:47;;;;;;;4.32;3.30;;;;;;;32.32;35.82;100437.69;31473024;28;20053;-79
2023/09/12 12:22:52;;;;;;;5.57;3.13;;;;;;;31.19;36.94;100429.19;31472671;28;20049;-74
2023/09/12 12:37:58;;;;;;;10.55;3.30;;;;;;;30.50;38.19;100427.28;31469341;28;20462;-78
2023/09/12 12:53:08;;;;;;;8.52;3.50;;;;;;;30.08;38.89;100421.72;31472463;28;20040;-83
2023/09/12 13:08:10;;;;;;;10.48;4.45;;;;;;;29.57;40.11;100423.44;31501485;28;20056;-78
2023/09/12 13:23:15;;;;;;;7.32;3.53;;;;;;;29.66;39.67;100411.81;31475512;28;20048;-78
2023/09/12 13:38:18;;;;;;;7.47;4.05;;;;;;;29.70;38.59;100412.22;31502465;28;20076;-79
2023/09/12 13:53:23;;;;;;;7.40;3.50;;;;;;;29.38;39.10;100421.53;31488078;28;20049;-79
2023/09/12 14:08:25;;;;;;;5.55;3.33;;;;;;;29.06;39.26;100421.72;31487016;28;20061;-79
2023/09/12 14:23:29;;;;;;;6.50;3.25;;;;;;;28.91;39.20;100421.53;31496161;28;20072;-73
2023/09/12 14:38:31;;;;;;;10.48;3.25;;;;;;;28.68;39.68;100432.34;31475566;28;20478;-74
2023/09/12 14:53:33;;;;;;;6.33;3.30;;;;;;;28.45;40.19;100434.03;31476645;28;20065;-76
2023/09/12 15:08:36;;;;;;;5.97;3.20;;;;;;;28.22;40.35;100444.09;31469747;28;20056;-75
2023/09/12 15:23:38;;;;;;;32.75;19.67;;;;;;;27.93;41.22;100443.75;31467003;28;20297;-74
2023/09/12 15:38:40;;;;;;;14.03;5.20;;;;;;;27.74;41.52;100448.63;31470225;28;20052;-77
2023/09/12 15:53:42;;;;;;;9.43;4.00;;;;;;;27.53;42.17;100445.59;31481175;28;20052;-78
2023/09/12 16:08:45;;;;;;;5.85;3.70;;;;;;;27.39;42.28;100457.97;31504530;28;20054;-77
2023/09/12 16:23:47;;;;;;;9.33;3.70;;;;;;;27.22;42.43;100460.94;31472190;28;20044;-76
2023/09/12 16:38:50;;;;;;;7.43;4.70;;;;;;;26.92;43.66;100461.03;31480130;28;20044;-77
2023/09/12 16:53:53;;;;;;;5.95;4.28;;;;;;;26.63;44.05;100479.31;31496103;28;20053;-76
2023/09/12 17:08:56;;;;;;;17.87;7.10;;;;;;;26.36;45.06;100485.88;31500370;28;20079;-74
2023/09/12 17:23:59;;;;;;;18.38;8.15;;;;;;;26.05;46.02;100503.78;31506229;28;20045;-76
2023/09/12 17:39:01;;;;;;;13.17;6.60;;;;;;;25.98;47.02;100505.09;31465877;28;20076;-77
2023/09/12 17:54:03;;;;;;;21.77;10.43;;;;;;;25.84;47.57;100506.19;31482951;28;20044;-79
2023/09/12 18:09:05;;;;;;;20.80;7.67;;;;;;;25.65;48.35;100510.84;31494363;28;20056;-80
2023/09/12 18:24:07;;;;;;;13.10;7.43;;;;;;;25.46;49.07;100503.06;31501150;28;20059;-80
2023/09/12 18:39:09;;;;;;;16.13;7.97;;;;;;;25.36;49.82;100506.63;31491751;28;20049;-79
2023/09/12 18:54:21;;;;;;;15.75;9.40;;;;;;;25.26;51.69;100508.97;31479008;28;20123;-79
2023/09/12 19:09:23;;;;;;;11.70;6.18;;;;;;;25.22;50.54;100502.16;31473108;28;20091;-81
2023/09/12 19:24:25;;;;;;;11.95;7.18;;;;;;;25.12;50.73;100507.97;31473310;28;20071;-78
2023/09/12 19:39:27;;;;;;;12.15;5.95;;;;;;;24.93;51.35;100514.56;31481745;28;20074;-78
2023/09/12 19:54:29;;;;;;;16.80;6.25;;;;;;;24.64;52.29;100516.63;31467808;28;20056;-79
2023/09/12 20:09:31;;;;;;;12.17;7.07;;;;;;;24.66;51.72;100514.09;31462362;28;20060;-81
2023/09/12 20:24:35;;;;;;;;;;;;;;;24.67;51.65;100514.84;31472591;28;20079;-84
2023/09/12 20:39:37;;;;;;;16.13;6.50;;;;;;;24.60;50.13;100505.00;31474105;28;19921;-79
2023/09/12 20:54:40;;;;;;;21.30;11.65;;;;;;;24.54;50.93;100512.59;31484326;28;20044;-80
2023/09/12 21:09:42;;;;;;;10.60;6.20;;;;;;;24.41;50.43;100506.78;31478133;28;20045;-79
2023/09/12 21:24:45;;;;;;;12.07;6.70;;;;;;;24.25;50.79;100507.53;31466087;28;20048;-78
2023/09/12 21:39:47;;;;;;;13.82;5.97;;;;;;;24.14;51.63;100516.56;31491065;28;20055;-77
2023/09/12 21:54:49;;;;;;;13.18;6.60;;;;;;;23.95;51.36;100519.06;31481417;28;20064;-76
2023/09/12 22:09:51;;;;;;;15.95;6.85;;;;;;;23.23;55.13;100516.75;31478146;28;20059;-75
2023/09/12 22:24:54;;;;;;;17.52;7.10;;;;;;;22.91;56.95;100518.81;31486078;28;20406;-76
2023/09/12 22:39:56;;;;;;;13.03;6.93;;;;;;;22.69;59.06;100516.63;31471793;28;20110;-75
2023/09/12 22:54:58;;;;;;;48.90;24.10;;;;;;;22.66;61.42;100508.59;31453857;28;20092;-76
2023/09/12 23:10:01;;;;;;;20.20;7.30;;;;;;;22.47;71.10;100497.09;31471377;28;20533;-78
2023/09/12 23:25:04;;;;;;;20.02;9.65;;;;;;;22.28;73.25;100484.88;31474064;28;20059;-76
2023/09/12 23:40:07;;;;;;;22.53;9.37;;;;;;;22.37;72.76;100482.69;31465211;28;20044;-77
2023/09/12 23:55:09;;;;;;;19.95;9.10;;;;;;;21.91;77.36;100480.00;31482129;28;20064;-76
